sensor_id;sensor_type;location;lat;lon;timestamp;P1;durP1;ratioP1;P2;durP2;ratioP2
31978;SDS011;18502;43.574;1.276;2023-04-15T00:01:09;33.33;;;6.30;;
31978;SDS011;18502;43.574;1.276;2023-04-15T00:03:35;36.20;;;6.70;;
31978;SDS011;18502;43.574;1.276;2023-04-15T00:06:01;28.88;;;6.00;;
31978;SDS011;18502;43.574;1.276;2023-04-15T00:08:27;38.83;;;7.60;;
31978;SDS011;18502;43.574;1.276;2023-04-15T00:10:54;36.85;;;7.43;;
31978;SDS011;18502;43.574;1.276;2023-04-15T00:13:19;27.15;;;5.28;;
31978;SDS011;18502;43.574;1.276;2023-04-15T00:15:45;35.70;;;6.25;;
31978;SDS011;18502;43.574;1.276;2023-04-15T00:18:11;36.97;;;7.57;;
31978;SDS011;18502;43.574;1.276;2023-04-15T00:20:37;33.08;;;6.10;;
31978;SDS011;18502;43.574;1.276;2023-04-15T00:23:02;43.33;;;6.43;;
31978;SDS011;18502;43.574;1.276;2023-04-15T00:25:29;33.30;;;6.57;;
31978;SDS011;18502;43.574;1.276;2023-04-15T00:27:55;36.90;;;5.72;;
31978;SDS011;18502;43.574;1.276;2023-04-15T00:30:20;27.98;;;4.93;;
31978;SDS011;18502;43.574;1.276;2023-04-15T00:32:47;28.40;;;5.63;;
31978;SDS011;18502;43.574;1.276;2023-04-15T00:35:13;35.28;;;6.35;;
31978;SDS011;18502;43.574;1.276;2023-04-15T00:37:39;39.90;;;7.05;;
31978;SDS011;18502;43.574;1.276;2023-04-15T00:40:05;41.92;;;6.43;;
31978;SDS011;18502;43.574;1.276;2023-04-15T00:42:34;34.00;;;6.13;;
31978;SDS011;18502;43.574;1.276;2023-04-15T00:45:01;42.92;;;7.10;;
31978;SDS011;18502;43.574;1.276;2023-04-15T00:47:27;36.80;;;7.18;;
31978;SDS011;18502;43.574;1.276;2023-04-15T00:49:53;30.25;;;4.90;;
31978;SDS011;18502;43.574;1.276;2023-04-15T00:52:19;36.50;;;7.60;;
31978;SDS011;18502;43.574;1.276;2023-04-15T00:54:46;35.88;;;6.00;;
31978;SDS011;18502;43.574;1.276;2023-04-15T00:57:11;33.85;;;5.95;;
31978;SDS011;18502;43.574;1.276;2023-04-15T00:59:37;39.50;;;6.68;;
31978;SDS011;18502;43.574;1.276;2023-04-15T01:02:02;37.88;;;6.60;;
31978;SDS011;18502;43.574;1.276;2023-04-15T01:04:29;35.22;;;6.70;;
31978;SDS011;18502;43.574;1.276;2023-04-15T01:06:55;41.45;;;6.32;;
31978;SDS011;18502;43.574;1.276;2023-04-15T01:09:21;44.60;;;8.10;;
31978;SDS011;18502;43.574;1.276;2023-04-15T01:11:47;37.03;;;5.13;;
31978;SDS011;18502;43.574;1.276;2023-04-15T01:14:12;37.65;;;6.53;;
31978;SDS011;18502;43.574;1.276;2023-04-15T01:16:38;33.72;;;5.90;;
31978;SDS011;18502;43.574;1.276;2023-04-15T01:19:08;49.65;;;7.38;;
31978;SDS011;18502;43.574;1.276;2023-04-15T01:21:35;36.22;;;7.00;;
31978;SDS011;18502;43.574;1.276;2023-04-15T01:24:08;26.15;;;4.78;;
31978;SDS011;18502;43.574;1.276;2023-04-15T01:26:37;28.38;;;4.97;;
31978;SDS011;18502;43.574;1.276;2023-04-15T01:29:04;26.75;;;5.28;;
31978;SDS011;18502;43.574;1.276;2023-04-15T01:31:30;30.05;;;5.07;;
31978;SDS011;18502;43.574;1.276;2023-04-15T01:33:57;32.85;;;5.22;;
31978;SDS011;18502;43.574;1.276;2023-04-15T01:36:24;33.28;;;5.63;;
31978;SDS011;18502;43.574;1.276;2023-04-15T01:38:49;30.60;;;4.85;;
31978;SDS011;18502;43.574;1.276;2023-04-15T01:41:16;31.17;;;5.40;;
31978;SDS011;18502;43.574;1.276;2023-04-15T01:43:47;39.83;;;7.28;;
31978;SDS011;18502;43.574;1.276;2023-04-15T01:46:13;37.50;;;5.95;;
31978;SDS011;18502;43.574;1.276;2023-04-15T01:48:39;36.92;;;6.53;;
31978;SDS011;18502;43.574;1.276;2023-04-15T01:51:05;43.47;;;6.03;;
31978;SDS011;18502;43.574;1.276;2023-04-15T01:53:30;31.95;;;4.63;;
31978;SDS011;18502;43.574;1.276;2023-04-15T01:55:56;21.00;;;4.03;;
31978;SDS011;18502;43.574;1.276;2023-04-15T01:58:22;27.02;;;4.63;;
31978;SDS011;18502;43.574;1.276;2023-04-15T02:00:47;18.92;;;3.03;;
31978;SDS011;18502;43.574;1.276;2023-04-15T02:03:13;17.45;;;2.70;;
31978;SDS011;18502;43.574;1.276;2023-04-15T02:05:39;17.38;;;2.60;;
31978;SDS011;18502;43.574;1.276;2023-04-15T02:08:04;16.27;;;2.63;;
31978;SDS011;18502;43.574;1.276;2023-04-15T02:10:30;18.23;;;2.75;;
31978;SDS011;18502;43.574;1.276;2023-04-15T02:12:55;17.90;;;2.22;;
31978;SDS011;18502;43.574;1.276;2023-04-15T02:15:21;20.75;;;2.60;;
31978;SDS011;18502;43.574;1.276;2023-04-15T02:17:47;11.52;;;1.90;;
31978;SDS011;18502;43.574;1.276;2023-04-15T02:20:15;13.48;;;2.20;;
31978;SDS011;18502;43.574;1.276;2023-04-15T02:22:42;11.55;;;1.42;;
31978;SDS011;18502;43.574;1.276;2023-04-15T02:25:08;13.25;;;2.33;;
31978;SDS011;18502;43.574;1.276;2023-04-15T02:27:34;18.00;;;2.58;;
31978;SDS011;18502;43.574;1.276;2023-04-15T02:30:00;17.15;;;4.05;;
31978;SDS011;18502;43.574;1.276;2023-04-15T02:32:27;16.95;;;3.25;;
31978;SDS011;18502;43.574;1.276;2023-04-15T02:34:53;26.83;;;3.60;;
31978;SDS011;18502;43.574;1.276;2023-04-15T02:37:19;25.60;;;4.45;;
31978;SDS011;18502;43.574;1.276;2023-04-15T02:39:45;30.75;;;4.50;;
31978;SDS011;18502;43.574;1.276;2023-04-15T02:42:10;31.75;;;4.60;;
31978;SDS011;18502;43.574;1.276;2023-04-15T02:44:37;32.78;;;4.97;;
31978;SDS011;18502;43.574;1.276;2023-04-15T02:47:03;21.77;;;3.38;;
31978;SDS011;18502;43.574;1.276;2023-04-15T02:49:31;22.17;;;4.32;;
31978;SDS011;18502;43.574;1.276;2023-04-15T02:51:57;24.55;;;3.90;;
31978;SDS011;18502;43.574;1.276;2023-04-15T02:54:24;20.92;;;4.97;;
31978;SDS011;18502;43.574;1.276;2023-04-15T02:56:52;12.23;;;2.10;;
31978;SDS011;18502;43.574;1.276;2023-04-15T02:59:20;23.63;;;3.50;;
31978;SDS011;18502;43.574;1.276;2023-04-15T03:01:46;23.55;;;3.45;;
31978;SDS011;18502;43.574;1.276;2023-04-15T03:04:11;29.65;;;4.82;;
31978;SDS011;18502;43.574;1.276;2023-04-15T03:06:38;30.13;;;5.38;;
31978;SDS011;18502;43.574;1.276;2023-04-15T03:09:04;26.85;;;4.25;;
31978;SDS011;18502;43.574;1.276;2023-04-15T03:11:29;18.80;;;3.30;;
31978;SDS011;18502;43.574;1.276;2023-04-15T03:13:55;29.63;;;4.13;;
31978;SDS011;18502;43.574;1.276;2023-04-15T03:16:22;16.10;;;1.77;;
31978;SDS011;18502;43.574;1.276;2023-04-15T03:18:48;8.45;;;1.65;;
31978;SDS011;18502;43.574;1.276;2023-04-15T03:21:14;19.23;;;2.92;;
31978;SDS011;18502;43.574;1.276;2023-04-15T03:23:40;23.20;;;3.53;;
31978;SDS011;18502;43.574;1.276;2023-04-15T03:26:05;23.90;;;3.40;;
31978;SDS011;18502;43.574;1.276;2023-04-15T03:28:31;17.35;;;3.20;;
31978;SDS011;18502;43.574;1.276;2023-04-15T03:30:57;22.80;;;3.40;;
31978;SDS011;18502;43.574;1.276;2023-04-15T03:33:23;23.20;;;2.95;;
31978;SDS011;18502;43.574;1.276;2023-04-15T03:35:49;24.58;;;3.30;;
31978;SDS011;18502;43.574;1.276;2023-04-15T03:38:16;15.20;;;2.80;;
31978;SDS011;18502;43.574;1.276;2023-04-15T03:40:42;18.40;;;2.75;;
31978;SDS011;18502;43.574;1.276;2023-04-15T03:43:07;29.88;;;3.85;;
31978;SDS011;18502;43.574;1.276;2023-04-15T03:45:33;33.70;;;4.18;;
31978;SDS011;18502;43.574;1.276;2023-04-15T03:47:59;17.08;;;2.78;;
31978;SDS011;18502;43.574;1.276;2023-04-15T03:50:25;29.67;;;3.58;;
31978;SDS011;18502;43.574;1.276;2023-04-15T03:52:51;13.05;;;2.03;;
31978;SDS011;18502;43.574;1.276;2023-04-15T03:55:17;28.70;;;3.25;;
31978;SDS011;18502;43.574;1.276;2023-04-15T03:57:44;29.83;;;4.22;;
31978;SDS011;18502;43.574;1.276;2023-04-15T04:00:10;29.42;;;3.28;;
31978;SDS011;18502;43.574;1.276;2023-04-15T04:02:36;24.77;;;3.42;;
31978;SDS011;18502;43.574;1.276;2023-04-15T04:05:02;24.73;;;4.32;;
31978;SDS011;18502;43.574;1.276;2023-04-15T04:07:28;24.67;;;3.55;;
31978;SDS011;18502;43.574;1.276;2023-04-15T04:09:54;38.80;;;4.25;;
31978;SDS011;18502;43.574;1.276;2023-04-15T04:12:21;25.23;;;4.18;;
31978;SDS011;18502;43.574;1.276;2023-04-15T04:14:46;24.92;;;3.38;;
31978;SDS011;18502;43.574;1.276;2023-04-15T04:17:12;28.70;;;3.88;;
31978;SDS011;18502;43.574;1.276;2023-04-15T04:19:38;24.15;;;4.10;;
31978;SDS011;18502;43.574;1.276;2023-04-15T04:22:03;20.35;;;3.78;;
31978;SDS011;18502;43.574;1.276;2023-04-15T04:24:29;29.95;;;4.32;;
31978;SDS011;18502;43.574;1.276;2023-04-15T04:26:55;26.13;;;3.83;;
31978;SDS011;18502;43.574;1.276;2023-04-15T04:29:21;23.05;;;3.47;;
31978;SDS011;18502;43.574;1.276;2023-04-15T04:31:47;25.55;;;4.05;;
31978;SDS011;18502;43.574;1.276;2023-04-15T04:34:13;26.65;;;4.68;;
31978;SDS011;18502;43.574;1.276;2023-04-15T04:36:39;24.55;;;4.38;;
31978;SDS011;18502;43.574;1.276;2023-04-15T04:39:05;20.48;;;3.25;;
31978;SDS011;18502;43.574;1.276;2023-04-15T04:41:31;33.72;;;4.35;;
31978;SDS011;18502;43.574;1.276;2023-04-15T04:43:56;31.13;;;3.67;;
31978;SDS011;18502;43.574;1.276;2023-04-15T04:46:22;22.83;;;3.58;;
31978;SDS011;18502;43.574;1.276;2023-04-15T04:48:48;27.75;;;3.80;;
31978;SDS011;18502;43.574;1.276;2023-04-15T04:51:13;26.48;;;3.83;;
31978;SDS011;18502;43.574;1.276;2023-04-15T04:53:39;31.02;;;5.68;;
31978;SDS011;18502;43.574;1.276;2023-04-15T04:56:07;33.55;;;4.97;;
31978;SDS011;18502;43.574;1.276;2023-04-15T04:58:32;24.38;;;3.45;;
31978;SDS011;18502;43.574;1.276;2023-04-15T05:00:58;24.27;;;3.65;;
31978;SDS011;18502;43.574;1.276;2023-04-15T05:03:24;23.08;;;3.30;;
31978;SDS011;18502;43.574;1.276;2023-04-15T05:05:49;24.65;;;3.50;;
31978;SDS011;18502;43.574;1.276;2023-04-15T05:08:15;16.95;;;2.75;;
31978;SDS011;18502;43.574;1.276;2023-04-15T05:10:41;16.40;;;2.78;;
31978;SDS011;18502;43.574;1.276;2023-04-15T05:13:06;25.05;;;4.32;;
31978;SDS011;18502;43.574;1.276;2023-04-15T05:15:32;16.20;;;3.10;;
31978;SDS011;18502;43.574;1.276;2023-04-15T05:18:00;22.35;;;2.75;;
31978;SDS011;18502;43.574;1.276;2023-04-15T05:20:26;16.13;;;3.30;;
31978;SDS011;18502;43.574;1.276;2023-04-15T05:22:52;21.35;;;2.92;;
31978;SDS011;18502;43.574;1.276;2023-04-15T05:25:18;13.93;;;2.28;;
31978;SDS011;18502;43.574;1.276;2023-04-15T05:27:43;10.98;;;2.35;;
31978;SDS011;18502;43.574;1.276;2023-04-15T05:30:09;15.10;;;2.28;;
31978;SDS011;18502;43.574;1.276;2023-04-15T05:32:35;18.40;;;2.53;;
31978;SDS011;18502;43.574;1.276;2023-04-15T05:35:01;9.68;;;1.55;;
31978;SDS011;18502;43.574;1.276;2023-04-15T05:37:27;15.25;;;3.17;;
31978;SDS011;18502;43.574;1.276;2023-04-15T05:39:52;14.68;;;1.42;;
31978;SDS011;18502;43.574;1.276;2023-04-15T05:42:18;20.27;;;2.80;;
31978;SDS011;18502;43.574;1.276;2023-04-15T05:44:43;13.45;;;2.00;;
31978;SDS011;18502;43.574;1.276;2023-04-15T05:47:09;11.80;;;1.90;;
31978;SDS011;18502;43.574;1.276;2023-04-15T05:49:35;18.50;;;1.80;;
31978;SDS011;18502;43.574;1.276;2023-04-15T05:52:01;12.15;;;1.40;;
31978;SDS011;18502;43.574;1.276;2023-04-15T05:54:27;15.10;;;2.25;;
31978;SDS011;18502;43.574;1.276;2023-04-15T05:56:53;10.77;;;1.65;;
31978;SDS011;18502;43.574;1.276;2023-04-15T05:59:18;10.13;;;1.45;;
31978;SDS011;18502;43.574;1.276;2023-04-15T06:01:44;14.82;;;2.00;;
31978;SDS011;18502;43.574;1.276;2023-04-15T06:04:10;19.70;;;1.95;;
31978;SDS011;18502;43.574;1.276;2023-04-15T06:06:36;17.08;;;1.70;;
31978;SDS011;18502;43.574;1.276;2023-04-15T06:09:02;12.77;;;1.85;;
31978;SDS011;18502;43.574;1.276;2023-04-15T06:11:28;15.02;;;1.70;;
31978;SDS011;18502;43.574;1.276;2023-04-15T06:13:54;16.15;;;2.35;;
31978;SDS011;18502;43.574;1.276;2023-04-15T06:16:20;8.57;;;1.42;;
31978;SDS011;18502;43.574;1.276;2023-04-15T06:18:47;14.65;;;2.20;;
31978;SDS011;18502;43.574;1.276;2023-04-15T06:21:12;15.40;;;2.30;;
31978;SDS011;18502;43.574;1.276;2023-04-15T06:23:38;13.70;;;2.75;;
31978;SDS011;18502;43.574;1.276;2023-04-15T06:26:05;15.20;;;1.77;;
31978;SDS011;18502;43.574;1.276;2023-04-15T06:28:31;18.15;;;1.75;;
31978;SDS011;18502;43.574;1.276;2023-04-15T06:30:56;15.27;;;2.63;;
31978;SDS011;18502;43.574;1.276;2023-04-15T06:33:22;11.70;;;1.83;;
31978;SDS011;18502;43.574;1.276;2023-04-15T06:35:48;15.90;;;1.83;;
31978;SDS011;18502;43.574;1.276;2023-04-15T06:38:14;16.77;;;2.05;;
31978;SDS011;18502;43.574;1.276;2023-04-15T06:40:39;14.50;;;1.83;;
31978;SDS011;18502;43.574;1.276;2023-04-15T06:43:06;11.07;;;1.92;;
31978;SDS011;18502;43.574;1.276;2023-04-15T06:45:32;15.35;;;3.25;;
31978;SDS011;18502;43.574;1.276;2023-04-15T06:47:57;7.55;;;1.20;;
31978;SDS011;18502;43.574;1.276;2023-04-15T06:50:23;2.03;;;0.47;;
31978;SDS011;18502;43.574;1.276;2023-04-15T06:52:49;4.60;;;0.73;;
31978;SDS011;18502;43.574;1.276;2023-04-15T06:55:14;3.75;;;0.50;;
31978;SDS011;18502;43.574;1.276;2023-04-15T06:57:40;3.75;;;0.52;;
31978;SDS011;18502;43.574;1.276;2023-04-15T07:00:06;4.75;;;0.60;;
31978;SDS011;18502;43.574;1.276;2023-04-15T07:02:32;4.95;;;0.80;;
31978;SDS011;18502;43.574;1.276;2023-04-15T07:04:58;2.13;;;0.50;;
31978;SDS011;18502;43.574;1.276;2023-04-15T07:07:24;3.50;;;0.80;;
31978;SDS011;18502;43.574;1.276;2023-04-15T07:09:49;4.45;;;0.82;;
31978;SDS011;18502;43.574;1.276;2023-04-15T07:12:17;4.75;;;1.00;;
31978;SDS011;18502;43.574;1.276;2023-04-15T07:14:43;6.95;;;1.80;;
31978;SDS011;18502;43.574;1.276;2023-04-15T07:17:09;13.25;;;1.73;;
31978;SDS011;18502;43.574;1.276;2023-04-15T07:19:35;6.75;;;1.23;;
31978;SDS011;18502;43.574;1.276;2023-04-15T07:22:01;6.38;;;1.30;;
31978;SDS011;18502;43.574;1.276;2023-04-15T07:24:26;6.78;;;1.10;;
31978;SDS011;18502;43.574;1.276;2023-04-15T07:26:55;9.52;;;1.50;;
31978;SDS011;18502;43.574;1.276;2023-04-15T07:29:22;6.90;;;1.17;;
31978;SDS011;18502;43.574;1.276;2023-04-15T07:31:48;12.80;;;1.60;;
31978;SDS011;18502;43.574;1.276;2023-04-15T07:34:13;8.43;;;1.50;;
31978;SDS011;18502;43.574;1.276;2023-04-15T07:36:40;15.00;;;1.52;;
31978;SDS011;18502;43.574;1.276;2023-04-15T07:39:06;6.28;;;1.45;;
31978;SDS011;18502;43.574;1.276;2023-04-15T07:41:32;8.55;;;1.65;;
31978;SDS011;18502;43.574;1.276;2023-04-15T07:43:57;8.50;;;1.60;;
31978;SDS011;18502;43.574;1.276;2023-04-15T07:46:23;4.18;;;1.48;;
31978;SDS011;18502;43.574;1.276;2023-04-15T07:48:51;8.63;;;1.40;;
31978;SDS011;18502;43.574;1.276;2023-04-15T07:51:17;5.30;;;1.23;;
31978;SDS011;18502;43.574;1.276;2023-04-15T07:53:43;10.38;;;2.05;;
31978;SDS011;18502;43.574;1.276;2023-04-15T07:56:09;9.50;;;1.40;;
31978;SDS011;18502;43.574;1.276;2023-04-15T07:58:35;4.00;;;1.30;;
31978;SDS011;18502;43.574;1.276;2023-04-15T08:01:01;9.60;;;2.55;;
31978;SDS011;18502;43.574;1.276;2023-04-15T08:03:29;6.10;;;0.90;;
31978;SDS011;18502;43.574;1.276;2023-04-15T08:05:54;8.40;;;2.03;;
31978;SDS011;18502;43.574;1.276;2023-04-15T08:08:20;9.15;;;1.67;;
31978;SDS011;18502;43.574;1.276;2023-04-15T08:10:46;13.82;;;1.80;;
31978;SDS011;18502;43.574;1.276;2023-04-15T08:13:12;5.65;;;1.55;;
31978;SDS011;18502;43.574;1.276;2023-04-15T08:15:37;9.55;;;1.45;;
31978;SDS011;18502;43.574;1.276;2023-04-15T08:18:03;6.15;;;1.05;;
31978;SDS011;18502;43.574;1.276;2023-04-15T08:20:28;8.60;;;1.80;;
31978;SDS011;18502;43.574;1.276;2023-04-15T08:22:54;7.32;;;1.40;;
31978;SDS011;18502;43.574;1.276;2023-04-15T08:25:20;9.25;;;1.70;;
31978;SDS011;18502;43.574;1.276;2023-04-15T08:27:46;14.82;;;4.72;;
31978;SDS011;18502;43.574;1.276;2023-04-15T08:30:12;15.05;;;1.92;;
31978;SDS011;18502;43.574;1.276;2023-04-15T08:32:38;16.40;;;3.38;;
31978;SDS011;18502;43.574;1.276;2023-04-15T08:35:04;12.98;;;2.20;;
31978;SDS011;18502;43.574;1.276;2023-04-15T08:37:30;10.50;;;2.47;;
31978;SDS011;18502;43.574;1.276;2023-04-15T08:39:56;16.15;;;2.58;;
31978;SDS011;18502;43.574;1.276;2023-04-15T08:42:31;10.35;;;2.15;;
31978;SDS011;18502;43.574;1.276;2023-04-15T08:45:03;13.77;;;3.10;;
31978;SDS011;18502;43.574;1.276;2023-04-15T08:47:29;9.32;;;1.50;;
31978;SDS011;18502;43.574;1.276;2023-04-15T08:49:56;7.80;;;1.60;;
31978;SDS011;18502;43.574;1.276;2023-04-15T08:52:26;8.05;;;1.83;;
31978;SDS011;18502;43.574;1.276;2023-04-15T08:54:54;7.03;;;1.55;;
31978;SDS011;18502;43.574;1.276;2023-04-15T08:57:25;5.97;;;1.45;;
31978;SDS011;18502;43.574;1.276;2023-04-15T08:59:55;11.45;;;3.00;;
31978;SDS011;18502;43.574;1.276;2023-04-15T09:02:22;8.98;;;1.80;;
31978;SDS011;18502;43.574;1.276;2023-04-15T09:04:49;7.57;;;2.55;;
31978;SDS011;18502;43.574;1.276;2023-04-15T09:07:15;8.30;;;1.60;;
31978;SDS011;18502;43.574;1.276;2023-04-15T09:09:40;7.53;;;2.30;;
31978;SDS011;18502;43.574;1.276;2023-04-15T09:12:07;10.93;;;2.03;;
31978;SDS011;18502;43.574;1.276;2023-04-15T09:14:33;8.80;;;2.03;;
31978;SDS011;18502;43.574;1.276;2023-04-15T09:16:59;12.18;;;3.10;;
31978;SDS011;18502;43.574;1.276;2023-04-15T09:19:26;13.60;;;1.55;;
31978;SDS011;18502;43.574;1.276;2023-04-15T09:21:53;12.23;;;2.10;;
31978;SDS011;18502;43.574;1.276;2023-04-15T09:24:20;8.45;;;1.58;;
31978;SDS011;18502;43.574;1.276;2023-04-15T09:26:46;7.78;;;1.52;;
31978;SDS011;18502;43.574;1.276;2023-04-15T09:29:16;14.68;;;1.50;;
31978;SDS011;18502;43.574;1.276;2023-04-15T09:31:42;13.35;;;3.05;;
31978;SDS011;18502;43.574;1.276;2023-04-15T09:34:08;10.82;;;5.00;;
31978;SDS011;18502;43.574;1.276;2023-04-15T09:37:07;12.85;;;2.45;;
31978;SDS011;18502;43.574;1.276;2023-04-15T09:39:26;12.32;;;3.25;;
31978;SDS011;18502;43.574;1.276;2023-04-15T09:42:04;20.33;;;5.32;;
31978;SDS011;18502;43.574;1.276;2023-04-15T09:44:31;15.13;;;4.00;;
31978;SDS011;18502;43.574;1.276;2023-04-15T09:46:56;10.90;;;3.70;;
31978;SDS011;18502;43.574;1.276;2023-04-15T09:49:22;15.13;;;3.05;;
31978;SDS011;18502;43.574;1.276;2023-04-15T09:51:48;11.73;;;2.20;;
31978;SDS011;18502;43.574;1.276;2023-04-15T09:54:20;8.40;;;2.20;;
31978;SDS011;18502;43.574;1.276;2023-04-15T09:56:46;9.63;;;1.98;;
31978;SDS011;18502;43.574;1.276;2023-04-15T09:59:12;8.43;;;2.70;;
31978;SDS011;18502;43.574;1.276;2023-04-15T10:01:38;11.60;;;5.65;;
31978;SDS011;18502;43.574;1.276;2023-04-15T10:04:06;10.05;;;3.33;;
31978;SDS011;18502;43.574;1.276;2023-04-15T10:06:33;7.93;;;3.38;;
31978;SDS011;18502;43.574;1.276;2023-04-15T10:09:00;7.18;;;2.08;;
31978;SDS011;18502;43.574;1.276;2023-04-15T10:11:29;7.30;;;2.28;;
31978;SDS011;18502;43.574;1.276;2023-04-15T10:13:55;4.33;;;2.00;;
31978;SDS011;18502;43.574;1.276;2023-04-15T10:16:21;7.35;;;2.17;;
31978;SDS011;18502;43.574;1.276;2023-04-15T10:18:53;7.30;;;1.95;;
31978;SDS011;18502;43.574;1.276;2023-04-15T10:21:19;7.82;;;1.58;;
31978;SDS011;18502;43.574;1.276;2023-04-15T10:23:47;5.63;;;1.60;;
31978;SDS011;18502;43.574;1.276;2023-04-15T10:26:14;5.53;;;1.25;;
31978;SDS011;18502;43.574;1.276;2023-04-15T10:28:41;10.52;;;1.60;;
31978;SDS011;18502;43.574;1.276;2023-04-15T10:31:08;7.22;;;1.60;;
31978;SDS011;18502;43.574;1.276;2023-04-15T10:33:37;7.57;;;2.15;;
31978;SDS011;18502;43.574;1.276;2023-04-15T10:36:04;12.40;;;1.70;;
31978;SDS011;18502;43.574;1.276;2023-04-15T10:41:11;7.85;;;1.20;;
31978;SDS011;18502;43.574;1.276;2023-04-15T10:43:37;6.05;;;1.45;;
31978;SDS011;18502;43.574;1.276;2023-04-15T10:46:04;7.05;;;1.48;;
31978;SDS011;18502;43.574;1.276;2023-04-15T10:48:30;7.65;;;1.25;;
31978;SDS011;18502;43.574;1.276;2023-04-15T10:50:57;3.75;;;1.25;;
31978;SDS011;18502;43.574;1.276;2023-04-15T10:53:28;6.28;;;1.80;;
31978;SDS011;18502;43.574;1.276;2023-04-15T10:58:24;6.43;;;2.03;;
31978;SDS011;18502;43.574;1.276;2023-04-15T11:00:52;7.73;;;2.13;;
31978;SDS011;18502;43.574;1.276;2023-04-15T11:03:51;10.70;;;2.42;;
31978;SDS011;18502;43.574;1.276;2023-04-15T11:06:09;6.97;;;1.55;;
31978;SDS011;18502;43.574;1.276;2023-04-15T11:09:10;13.02;;;1.48;;
31978;SDS011;18502;43.574;1.276;2023-04-15T11:17:03;4.88;;;1.40;;
31978;SDS011;18502;43.574;1.276;2023-04-15T11:19:38;5.10;;;1.40;;
31978;SDS011;18502;43.574;1.276;2023-04-15T11:22:09;6.63;;;1.45;;
31978;SDS011;18502;43.574;1.276;2023-04-15T11:24:36;7.53;;;1.48;;
31978;SDS011;18502;43.574;1.276;2023-04-15T11:27:19;6.05;;;2.00;;
31978;SDS011;18502;43.574;1.276;2023-04-15T11:29:45;11.60;;;1.70;;
31978;SDS011;18502;43.574;1.276;2023-04-15T11:32:11;6.72;;;1.35;;
31978;SDS011;18502;43.574;1.276;2023-04-15T11:34:36;6.28;;;1.85;;
31978;SDS011;18502;43.574;1.276;2023-04-15T11:37:03;9.48;;;2.13;;
31978;SDS011;18502;43.574;1.276;2023-04-15T11:39:30;6.72;;;1.95;;
31978;SDS011;18502;43.574;1.276;2023-04-15T11:41:56;9.57;;;1.88;;
31978;SDS011;18502;43.574;1.276;2023-04-15T11:44:22;5.53;;;1.38;;
31978;SDS011;18502;43.574;1.276;2023-04-15T11:46:47;10.27;;;2.45;;
31978;SDS011;18502;43.574;1.276;2023-04-15T11:49:29;4.35;;;1.35;;
31978;SDS011;18502;43.574;1.276;2023-04-15T11:51:55;4.60;;;1.20;;
31978;SDS011;18502;43.574;1.276;2023-04-15T11:54:21;6.15;;;1.30;;
31978;SDS011;18502;43.574;1.276;2023-04-15T11:56:50;6.18;;;1.73;;
31978;SDS011;18502;43.574;1.276;2023-04-15T12:01:42;4.30;;;1.20;;
31978;SDS011;18502;43.574;1.276;2023-04-15T12:04:10;3.85;;;1.80;;
31978;SDS011;18502;43.574;1.276;2023-04-15T12:06:47;3.50;;;1.00;;
31978;SDS011;18502;43.574;1.276;2023-04-15T12:09:13;4.32;;;1.25;;
31978;SDS011;18502;43.574;1.276;2023-04-15T12:11:47;7.40;;;1.50;;
31978;SDS011;18502;43.574;1.276;2023-04-15T12:19:09;7.05;;;1.20;;
31978;SDS011;18502;43.574;1.276;2023-04-15T12:21:37;6.55;;;1.60;;
31978;SDS011;18502;43.574;1.276;2023-04-15T12:24:04;6.28;;;1.73;;
31978;SDS011;18502;43.574;1.276;2023-04-15T12:29:06;6.30;;;1.00;;
31978;SDS011;18502;43.574;1.276;2023-04-15T12:31:35;4.20;;;1.60;;
31978;SDS011;18502;43.574;1.276;2023-04-15T12:34:02;5.15;;;1.35;;
31978;SDS011;18502;43.574;1.276;2023-04-15T12:36:31;3.88;;;1.27;;
31978;SDS011;18502;43.574;1.276;2023-04-15T12:39:03;3.85;;;1.45;;
31978;SDS011;18502;43.574;1.276;2023-04-15T12:41:29;4.20;;;1.53;;
31978;SDS011;18502;43.574;1.276;2023-04-15T12:43:55;5.40;;;1.35;;
31978;SDS011;18502;43.574;1.276;2023-04-15T12:46:21;4.72;;;1.60;;
31978;SDS011;18502;43.574;1.276;2023-04-15T12:48:47;1.88;;;0.70;;
31978;SDS011;18502;43.574;1.276;2023-04-15T12:51:14;6.85;;;1.45;;
31978;SDS011;18502;43.574;1.276;2023-04-15T12:53:39;2.75;;;1.48;;
31978;SDS011;18502;43.574;1.276;2023-04-15T12:56:05;5.40;;;1.25;;
31978;SDS011;18502;43.574;1.276;2023-04-15T12:58:31;2.95;;;1.23;;
31978;SDS011;18502;43.574;1.276;2023-04-15T13:00:57;5.72;;;0.93;;
31978;SDS011;18502;43.574;1.276;2023-04-15T13:03:23;5.78;;;0.82;;
31978;SDS011;18502;43.574;1.276;2023-04-15T13:05:48;6.55;;;1.20;;
31978;SDS011;18502;43.574;1.276;2023-04-15T13:08:14;5.00;;;1.38;;
31978;SDS011;18502;43.574;1.276;2023-04-15T13:10:40;5.38;;;1.30;;
31978;SDS011;18502;43.574;1.276;2023-04-15T13:13:06;3.38;;;1.10;;
31978;SDS011;18502;43.574;1.276;2023-04-15T13:15:32;5.95;;;1.70;;
31978;SDS011;18502;43.574;1.276;2023-04-15T13:17:58;3.42;;;1.67;;
31978;SDS011;18502;43.574;1.276;2023-04-15T13:20:25;7.68;;;2.35;;
31978;SDS011;18502;43.574;1.276;2023-04-15T13:22:51;4.68;;;1.33;;
31978;SDS011;18502;43.574;1.276;2023-04-15T13:25:17;4.88;;;1.38;;
31978;SDS011;18502;43.574;1.276;2023-04-15T13:27:43;8.73;;;1.77;;
31978;SDS011;18502;43.574;1.276;2023-04-15T13:30:09;5.25;;;1.90;;
31978;SDS011;18502;43.574;1.276;2023-04-15T13:32:35;4.20;;;1.00;;
31978;SDS011;18502;43.574;1.276;2023-04-15T13:35:00;5.07;;;1.70;;
31978;SDS011;18502;43.574;1.276;2023-04-15T13:37:27;4.35;;;1.20;;
31978;SDS011;18502;43.574;1.276;2023-04-15T13:39:53;5.25;;;1.10;;
31978;SDS011;18502;43.574;1.276;2023-04-15T13:42:20;6.95;;;1.52;;
31978;SDS011;18502;43.574;1.276;2023-04-15T13:44:46;6.78;;;2.78;;
31978;SDS011;18502;43.574;1.276;2023-04-15T13:47:11;5.18;;;2.17;;
31978;SDS011;18502;43.574;1.276;2023-04-15T13:49:38;3.75;;;1.40;;
31978;SDS011;18502;43.574;1.276;2023-04-15T13:52:04;5.68;;;2.15;;
31978;SDS011;18502;43.574;1.276;2023-04-15T13:54:30;9.32;;;2.90;;
31978;SDS011;18502;43.574;1.276;2023-04-15T13:56:56;7.18;;;3.10;;
31978;SDS011;18502;43.574;1.276;2023-04-15T13:59:22;7.40;;;2.45;;
31978;SDS011;18502;43.574;1.276;2023-04-15T14:01:48;4.95;;;1.42;;
31978;SDS011;18502;43.574;1.276;2023-04-15T14:04:13;5.32;;;2.40;;
31978;SDS011;18502;43.574;1.276;2023-04-15T14:06:39;3.65;;;1.52;;
31978;SDS011;18502;43.574;1.276;2023-04-15T14:09:05;4.40;;;1.67;;
31978;SDS011;18502;43.574;1.276;2023-04-15T14:11:30;4.97;;;1.88;;
31978;SDS011;18502;43.574;1.276;2023-04-15T14:13:59;5.75;;;1.63;;
31978;SDS011;18502;43.574;1.276;2023-04-15T14:16:25;4.32;;;1.58;;
31978;SDS011;18502;43.574;1.276;2023-04-15T14:18:50;5.60;;;1.60;;
31978;SDS011;18502;43.574;1.276;2023-04-15T14:21:16;4.95;;;1.50;;
31978;SDS011;18502;43.574;1.276;2023-04-15T14:23:42;5.35;;;1.50;;
31978;SDS011;18502;43.574;1.276;2023-04-15T14:26:07;4.38;;;1.20;;
31978;SDS011;18502;43.574;1.276;2023-04-15T14:28:33;3.60;;;1.60;;
31978;SDS011;18502;43.574;1.276;2023-04-15T14:30:59;6.28;;;1.35;;
31978;SDS011;18502;43.574;1.276;2023-04-15T14:33:25;3.47;;;1.42;;
31978;SDS011;18502;43.574;1.276;2023-04-15T14:35:51;8.15;;;2.13;;
31978;SDS011;18502;43.574;1.276;2023-04-15T14:38:17;6.82;;;2.15;;
31978;SDS011;18502;43.574;1.276;2023-04-15T14:40:42;3.80;;;1.85;;
31978;SDS011;18502;43.574;1.276;2023-04-15T14:43:08;5.25;;;1.25;;
31978;SDS011;18502;43.574;1.276;2023-04-15T14:45:34;3.10;;;1.15;;
31978;SDS011;18502;43.574;1.276;2023-04-15T14:48:00;2.80;;;1.30;;
31978;SDS011;18502;43.574;1.276;2023-04-15T14:50:26;3.90;;;1.45;;
31978;SDS011;18502;43.574;1.276;2023-04-15T14:52:52;4.90;;;1.58;;
31978;SDS011;18502;43.574;1.276;2023-04-15T14:55:17;5.72;;;2.53;;
31978;SDS011;18502;43.574;1.276;2023-04-15T14:57:43;6.45;;;1.52;;